Time;durP1;ratioP1;P1;durP2;ratioP2;P2;SDS_P1;SDS_P2;PMS_P1;PMS_P2;Temp;Humidity;BMP_temperature;BMP_pressure;BME280_temperature;BME280_humidity;BME280_pressure;Samples;Min_cycle;Max_cycle;Signal;HPM_P1;HPM_P2
2022/03/23 00:00:43;;;;;;;24.60;15.80;;;;;;;12.12;36.43;98650.03;5122337;27;20198;-71
2022/03/23 00:03:16;;;;;;;25.27;15.97;;;;;;;12.10;36.06;98657.19;5122665;28;20185;-72
2022/03/23 00:05:42;;;;;;;25.33;16.33;;;;;;;12.08;36.08;98653.84;5120018;27;20495;-71
2022/03/23 00:08:08;;;;;;;23.23;15.03;;;;;;;12.04;35.66;98653.28;5127367;28;20521;-72
2022/03/23 00:10:34;;;;;;;22.70;15.83;;;;;;;12.04;35.81;98648.03;5120229;27;20461;-71
2022/03/23 00:13:00;;;;;;;22.67;15.83;;;;;;;12.06;35.86;98643.47;5122601;28;20437;-74
2022/03/23 00:15:27;;;;;;;21.87;15.87;;;;;;;12.03;35.88;98646.34;5131042;28;20429;-73
2022/03/23 00:17:54;;;;;;;25.17;15.57;;;;;;;11.97;35.83;98646.84;5149328;27;20440;-72
2022/03/23 00:20:20;;;;;;;23.30;15.27;;;;;;;11.89;36.12;98654.50;5131382;27;20458;-71
2022/03/23 00:22:45;;;;;;;20.93;14.83;;;;;;;11.84;35.44;98653.06;5138520;27;20619;-73
2022/03/23 00:25:11;;;;;;;29.30;14.87;;;;;;;11.81;35.29;98655.13;5123883;27;20431;-74
2022/03/23 00:27:37;;;;;;;18.90;13.27;;;;;;;11.68;35.63;98653.50;5133520;28;20181;-73
2022/03/23 00:30:03;;;;;;;25.40;14.67;;;;;;;11.73;35.41;98649.66;5134357;27;20488;-74
2022/03/23 00:32:28;;;;;;;22.40;13.83;;;;;;;11.67;35.62;98651.81;5129567;28;20207;-72
2022/03/23 00:34:54;;;;;;;22.40;14.87;;;;;;;11.65;35.51;98651.13;5135550;28;20429;-73
2022/03/23 00:37:20;;;;;;;23.20;14.03;;;;;;;11.70;35.31;98660.41;5121878;28;20252;-72
2022/03/23 00:39:46;;;;;;;22.97;14.77;;;;;;;11.69;35.81;98654.34;5123310;27;20189;-71
2022/03/23 00:42:11;;;;;;;22.43;14.90;;;;;;;11.70;35.63;98656.00;5119255;28;20477;-71
2022/03/23 00:44:37;;;;;;;21.07;13.73;;;;;;;11.63;35.35;98653.03;5116739;27;20188;-70
2022/03/23 00:47:02;;;;;;;20.43;14.13;;;;;;;11.60;35.69;98658.53;5128487;27;20593;-72
2022/03/23 00:49:28;;;;;;;22.90;14.43;;;;;;;11.58;35.55;98662.25;5124588;27;20667;-72
2022/03/23 00:51:55;;;;;;;20.03;13.87;;;;;;;11.52;35.24;98661.78;5121358;27;20204;-71
2022/03/23 00:54:21;;;;;;;22.50;14.40;;;;;;;11.39;35.70;98657.63;5123631;27;20245;-72
2022/03/23 00:56:48;;;;;;;20.53;13.23;;;;;;;11.25;35.81;98663.97;5121459;27;20422;-70
2022/03/23 00:59:13;;;;;;;21.73;13.50;;;;;;;11.15;36.11;98667.31;5127080;27;20808;-71
2022/03/23 01:01:39;;;;;;;19.97;14.50;;;;;;;11.29;35.93;98647.84;5122790;27;20450;-72
2022/03/23 01:04:05;;;;;;;20.20;14.43;;;;;;;11.39;36.04;98652.38;5113868;28;20183;-72
2022/03/23 01:06:31;;;;;;;29.13;13.00;;;;;;;11.32;35.64;98650.22;5131231;27;20426;-71
2022/03/23 01:08:57;;;;;;;25.23;13.87;;;;;;;11.34;36.16;98652.75;5122704;27;20423;-71
2022/03/23 01:11:23;;;;;;;18.80;13.57;;;;;;;11.36;35.92;98649.03;5115210;27;20466;-70
2022/03/23 01:13:48;;;;;;;20.37;13.43;;;;;;;11.25;36.03;98653.47;5125331;27;20280;-70
2022/03/23 01:16:15;;;;;;;18.47;12.47;;;;;;;11.30;36.17;98644.25;5128807;27;20172;-72
2022/03/23 01:18:40;;;;;;;20.50;13.83;;;;;;;11.33;35.90;98643.22;5127707;27;20726;-71
2022/03/23 01:21:06;;;;;;;19.20;13.77;;;;;;;11.39;35.90;98642.69;5125703;27;20524;-71
2022/03/23 01:23:31;;;;;;;24.43;14.37;;;;;;;11.40;35.74;98640.94;5126050;27;20223;-70
2022/03/23 01:25:57;;;;;;;24.90;13.37;;;;;;;11.39;35.79;98647.13;5124856;27;20184;-71
2022/03/23 01:28:22;;;;;;;19.43;14.13;;;;;;;11.29;35.89;98641.78;5124701;27;20276;-70
2022/03/23 01:30:48;;;;;;;19.00;13.83;;;;;;;11.26;35.80;98631.50;5121990;27;20232;-71
2022/03/23 01:33:13;;;;;;;23.10;14.27;;;;;;;11.14;35.87;98644.66;5129002;27;20184;-70
2022/03/23 01:35:39;;;;;;;21.40;13.80;;;;;;;11.01;36.16;98641.31;5119804;27;20173;-72
2022/03/23 01:38:04;;;;;;;22.30;13.37;;;;;;;11.03;36.26;98637.59;5120224;27;20222;-70
2022/03/23 01:40:30;;;;;;;22.60;13.90;;;;;;;11.03;36.58;98636.78;5123397;27;20295;-70
2022/03/23 01:42:55;;;;;;;20.53;12.77;;;;;;;11.02;36.63;98632.50;5116584;27;20176;-72
2022/03/23 01:45:21;;;;;;;19.00;12.90;;;;;;;10.97;36.90;98638.09;5130054;27;20271;-71
2022/03/23 01:47:47;;;;;;;16.93;13.13;;;;;;;10.96;36.84;98631.19;5133113;27;20181;-71
2022/03/23 01:50:12;;;;;;;20.40;13.37;;;;;;;10.97;36.92;98632.84;5125028;27;20201;-71
2022/03/23 01:52:38;;;;;;;16.60;13.43;;;;;;;10.94;36.90;98627.03;5130655;27;20597;-71
2022/03/23 01:55:13;;;;;;;21.40;13.90;;;;;;;10.91;36.81;98633.31;5117339;27;20222;-70
2022/03/23 01:57:39;;;;;;;19.57;14.90;;;;;;;10.85;37.32;98636.44;5132312;27;20474;-72
2022/03/23 02:00:06;;;;;;;19.10;13.03;;;;;;;10.84;37.26;98632.97;5127601;27;20447;-72
2022/03/23 02:02:32;;;;;;;21.93;13.77;;;;;;;10.81;37.19;98633.22;5124226;27;20431;-71
2022/03/23 02:04:58;;;;;;;17.23;13.30;;;;;;;10.72;36.88;98637.38;5119095;27;20434;-70
2022/03/23 02:07:24;;;;;;;16.97;12.00;;;;;;;10.63;36.97;98635.47;5111893;27;20188;-72
2022/03/23 02:09:50;;;;;;;18.43;12.63;;;;;;;10.70;36.96;98639.28;5121465;27;20212;-71
2022/03/23 02:12:15;;;;;;;18.53;13.30;;;;;;;10.72;37.06;98628.66;5115648;27;20788;-72
2022/03/23 02:14:41;;;;;;;23.27;13.77;;;;;;;10.70;36.86;98628.78;5125167;27;20430;-72
2022/03/23 02:17:06;;;;;;;18.87;13.97;;;;;;;10.60;37.11;98626.03;5124949;27;20225;-71
2022/03/23 02:19:33;;;;;;;19.13;12.70;;;;;;;10.63;37.39;98624.13;5116501;27;20565;-71
2022/03/23 02:21:58;;;;;;;24.43;13.63;;;;;;;10.68;36.91;98632.50;5124754;27;20268;-71
2022/03/23 02:24:26;;;;;;;18.50;13.20;;;;;;;10.68;37.25;98624.63;5124897;27;20886;-71
2022/03/23 02:26:52;;;;;;;18.77;13.50;;;;;;;10.63;37.10;98629.38;5124862;27;20197;-71
2022/03/23 02:29:19;;;;;;;23.13;14.07;;;;;;;10.48;37.53;98621.72;5124468;27;20427;-71
2022/03/23 02:31:45;;;;;;;21.93;13.90;;;;;;;10.51;37.41;98632.00;5124433;27;20458;-71
2022/03/23 02:34:10;;;;;;;18.77;13.07;;;;;;;10.49;36.81;98627.81;5130627;27;20414;-72
2022/03/23 02:36:36;;;;;;;17.73;13.43;;;;;;;10.52;37.37;98625.81;5102485;28;20181;-70
2022/03/23 02:39:02;;;;;;;20.77;13.63;;;;;;;10.52;37.08;98631.03;5125559;27;20282;-70
2022/03/23 02:41:28;;;;;;;19.83;13.80;;;;;;;10.51;37.03;98629.38;5130062;27;20200;-70
2022/03/23 02:43:53;;;;;;;20.20;13.70;;;;;;;10.51;37.08;98626.75;5117484;27;21095;-72
2022/03/23 02:46:20;;;;;;;22.47;13.57;;;;;;;10.41;37.49;98631.03;5124615;27;20228;-72
2022/03/23 02:48:46;;;;;;;23.90;12.73;;;;;;;10.37;37.42;98624.31;5124345;27;20180;-71
2022/03/23 02:51:12;;;;;;;18.43;12.93;;;;;;;10.30;37.65;98627.41;5124326;27;20465;-70
2022/03/23 03:01:52;;;;;;;22.10;13.67;;;;;;;10.12;38.61;98626.16;5121779;27;20273;-70
2022/03/23 03:02:49;;;;;;;20.13;13.80;;;;;;;10.14;38.16;98637.38;5109743;27;20456;-71
2022/03/23 03:05:14;;;;;;;17.30;12.83;;;;;;;10.06;38.17;98635.31;5115776;27;20817;-72
2022/03/23 03:10:25;;;;;;;19.50;13.63;;;;;;;10.05;37.50;98641.50;5124612;27;20291;-71
2022/03/23 03:12:51;;;;;;;17.73;12.90;;;;;;;10.03;37.45;98646.00;5123676;27;20819;-72
2022/03/23 03:15:19;;;;;;;22.23;14.00;;;;;;;9.94;37.88;98650.16;5123473;27;20435;-71
2022/03/23 03:17:46;;;;;;;20.90;13.50;;;;;;;9.99;38.00;98647.19;5116110;27;20453;-70
2022/03/23 03:20:14;;;;;;;18.33;11.93;;;;;;;10.02;37.77;98646.94;5131679;27;20414;-71
2022/03/23 03:22:40;;;;;;;18.47;13.37;;;;;;;10.04;38.22;98652.91;5115349;27;20453;-71
2022/03/23 03:25:07;;;;;;;18.60;12.20;;;;;;;9.96;37.97;98653.47;5126419;27;20456;-72
2022/03/23 03:27:35;;;;;;;19.47;13.30;;;;;;;9.97;38.31;98651.72;5112762;27;20503;-71
2022/03/23 03:30:03;;;;;;;21.83;13.43;;;;;;;9.94;38.02;98654.56;5108030;27;20461;-71
2022/03/23 03:32:28;;;;;;;16.90;12.80;;;;;;;9.97;38.17;98652.53;5113461;27;20949;-71
2022/03/23 03:34:54;;;;;;;18.37;12.27;;;;;;;9.96;38.06;98653.47;5123628;27;20508;-70
2022/03/23 03:37:19;;;;;;;21.23;12.83;;;;;;;9.94;38.05;98650.16;5128145;27;20264;-70
2022/03/23 03:39:45;;;;;;;18.77;13.20;;;;;;;9.95;38.22;98653.59;5127812;27;20196;-71
2022/03/23 03:42:12;;;;;;;21.10;13.13;;;;;;;9.94;37.85;98654.56;5120548;27;20197;-70
2022/03/23 03:44:37;;;;;;;20.27;13.40;;;;;;;9.91;38.34;98655.63;5122722;27;20546;-70
2022/03/23 03:47:03;;;;;;;18.23;13.10;;;;;;;9.91;38.40;98655.63;5116950;28;20433;-73
2022/03/23 03:49:29;;;;;;;18.73;12.60;;;;;;;9.92;38.31;98656.44;5119349;28;20948;-70
2022/03/23 03:51:54;;;;;;;19.13;13.73;;;;;;;9.86;38.64;98662.16;5111336;28;20550;-71
2022/03/23 03:54:19;;;;;;;19.80;14.23;;;;;;;9.91;38.15;98655.63;5120359;28;20195;-72
2022/03/23 03:56:45;;;;;;;17.03;12.20;;;;;;;9.91;38.44;98658.25;5123233;28;20188;-70
2022/03/23 03:59:10;;;;;;;19.07;12.83;;;;;;;9.93;38.43;98661.59;5127250;28;20855;-69
2022/03/23 04:01:36;;;;;;;21.63;13.63;;;;;;;9.88;38.64;98665.50;5114784;28;20253;-71
2022/03/23 04:04:01;;;;;;;19.63;13.67;;;;;;;9.86;38.70;98662.16;5130298;28;20188;-70
2022/03/23 04:06:27;;;;;;;19.63;14.27;;;;;;;9.83;38.29;98666.66;5130240;28;20184;-71
2022/03/23 04:08:52;;;;;;;23.07;14.90;;;;;;;9.82;38.54;98666.78;5119297;28;20547;-71
2022/03/23 04:11:18;;;;;;;19.67;13.80;;;;;;;9.79;38.87;98661.75;5112359;28;20287;-70
2022/03/23 04:13:44;;;;;;;22.20;14.80;;;;;;;9.80;38.48;98668.66;5103803;27;20714;-70
2022/03/23 04:16:09;;;;;;;18.47;14.00;;;;;;;9.81;38.49;98665.09;5119023;28;20564;-71
2022/03/23 04:18:35;;;;;;;24.10;14.10;;;;;;;9.75;38.52;98660.28;5111941;28;20271;-71
2022/03/23 04:21:00;;;;;;;22.53;15.27;;;;;;;9.71;38.78;98664.06;5113954;28;20197;-70
2022/03/23 04:23:25;;;;;;;21.50;15.33;;;;;;;9.60;39.12;98665.69;5113826;28;20203;-71
2022/03/23 04:25:51;;;;;;;21.70;15.73;;;;;;;9.53;40.00;98662.69;5104605;28;20653;-70
2022/03/23 04:28:16;;;;;;;25.87;16.03;;;;;;;9.51;39.97;98663.75;5115399;28;20195;-71
2022/03/23 04:30:42;;;;;;;32.33;15.33;;;;;;;9.54;39.68;98663.53;5114158;28;20205;-70
2022/03/23 04:33:07;;;;;;;24.23;15.53;;;;;;;9.52;39.79;98665.41;5115744;28;20622;-70
2022/03/23 04:35:33;;;;;;;22.50;14.83;;;;;;;9.51;40.23;98674.22;5115263;28;20185;-71
2022/03/23 04:37:59;;;;;;;23.90;16.13;;;;;;;9.46;40.41;98671.06;5114740;28;20197;-71
2022/03/23 04:40:24;;;;;;;25.10;15.83;;;;;;;9.49;40.17;98670.84;5114790;28;20197;-73
2022/03/23 04:42:50;;;;;;;31.73;16.97;;;;;;;9.51;39.82;98680.25;5118990;27;20196;-70
2022/03/23 04:45:16;;;;;;;24.60;16.27;;;;;;;9.53;39.91;98678.38;5114003;27;20192;-72
2022/03/23 04:47:42;;;;;;;22.50;15.63;;;;;;;9.48;39.79;98674.41;5114344;28;20925;-70
2022/03/23 04:50:09;;;;;;;30.50;17.80;;;;;;;9.30;40.35;98681.78;5113984;28;20205;-71
2022/03/23 04:52:35;;;;;;;31.70;18.03;;;;;;;9.19;40.44;98685.19;5113939;28;20214;-70
2022/03/23 04:55:01;;;;;;;25.37;17.10;;;;;;;9.09;40.42;98689.34;5114268;28;20427;-72
2022/03/23 04:57:27;;;;;;;25.67;17.43;;;;;;;9.03;40.51;98688.84;5114239;28;20430;-69
2022/03/23 04:59:53;;;;;;;27.00;15.80;;;;;;;8.97;40.98;98685.84;5121316;28;20177;-73
2022/03/23 05:02:19;;;;;;;30.57;19.00;;;;;;;8.94;41.42;98688.66;5115438;27;20542;-72
2022/03/23 05:04:45;;;;;;;28.23;16.47;;;;;;;8.95;41.03;98692.94;5124795;27;20504;-70
2022/03/23 05:07:11;;;;;;;28.20;16.63;;;;;;;9.07;41.03;98689.47;5101394;27;20190;-72
2022/03/23 05:09:37;;;;;;;22.53;15.97;;;;;;;9.13;41.41;98694.31;5112682;28;20481;-70
2022/03/23 05:12:02;;;;;;;23.50;16.23;;;;;;;9.19;40.50;98690.41;5114048;28;20443;-73
2022/03/23 05:14:28;;;;;;;25.70;17.80;;;;;;;9.20;41.00;98697.28;5115135;27;20738;-70
2022/03/23 05:16:53;;;;;;;26.90;18.13;;;;;;;9.20;40.82;98698.16;5105740;27;20189;-71
2022/03/23 05:19:19;;;;;;;25.17;18.23;;;;;;;9.12;41.05;98691.78;5125925;27;20271;-72
2022/03/23 05:21:45;;;;;;;24.97;16.33;;;;;;;9.07;41.21;98692.91;5125632;27;20208;-70
2022/03/23 05:24:11;;;;;;;26.40;17.40;;;;;;;9.12;41.04;98687.41;5133209;27;20191;-71
2022/03/23 05:26:36;;;;;;;26.90;17.97;;;;;;;9.04;41.40;98692.31;5125572;27;20447;-71
2022/03/23 05:29:02;;;;;;;36.73;18.50;;;;;;;8.92;41.18;98688.78;5125956;27;20643;-73
2022/03/23 05:31:28;;;;;;;25.10;19.00;;;;;;;8.97;41.36;98685.84;5125506;27;20266;-72
2022/03/23 05:33:54;;;;;;;30.93;17.47;;;;;;;8.98;41.59;98696.19;5127831;27;20423;-72
2022/03/23 05:36:19;;;;;;;29.60;18.37;;;;;;;8.99;41.63;98692.63;5131214;27;20254;-70
2022/03/23 05:38:45;;;;;;;28.23;18.30;;;;;;;9.02;41.51;98699.41;5137831;27;20207;-71
2022/03/23 05:41:10;;;;;;;34.60;19.27;;;;;;;8.88;41.20;98703.81;5122201;28;20552;-72
2022/03/23 05:43:36;;;;;;;34.00;19.50;;;;;;;8.83;41.28;98694.59;5120461;27;20259;-71
2022/03/23 05:46:01;;;;;;;28.97;18.03;;;;;;;8.75;41.89;98703.81;5113318;28;20241;-72
2022/03/23 05:48:26;;;;;;;26.87;18.50;;;;;;;8.74;42.38;98696.91;5113403;28;20209;-71
2022/03/23 05:50:52;;;;;;;32.73;18.43;;;;;;;8.91;41.93;98701.00;5112846;28;20204;-72
2022/03/23 05:53:17;;;;;;;31.67;18.83;;;;;;;9.22;41.41;98698.88;5121687;27;20687;-71
2022/03/23 05:55:43;;;;;;;36.63;19.33;;;;;;;9.43;41.29;98700.91;5112988;28;20272;-72
2022/03/23 05:58:09;;;;;;;25.47;17.77;;;;;;;9.57;40.59;98699.09;5113627;28;20173;-69
2022/03/23 06:00:34;;;;;;;33.60;22.60;;;;;;;9.57;40.85;98699.09;5113534;27;20219;-71
2022/03/23 06:03:00;;;;;;;37.10;22.00;;;;;;;9.48;40.87;98697.97;5127610;27;20451;-71
2022/03/23 06:05:26;;;;;;;37.30;22.23;;;;;;;9.55;40.61;98714.09;5113127;28;20185;-73
2022/03/23 06:07:51;;;;;;;38.27;20.07;;;;;;;9.58;41.43;98704.22;5113902;28;20227;-71
2022/03/23 06:10:17;;;;;;;44.37;21.10;;;;;;;9.73;41.15;98699.69;5120605;27;20687;-70
2022/03/23 06:12:42;;;;;;;32.90;20.70;;;;;;;9.71;40.78;98705.97;5072617;27;20306;-71
2022/03/23 06:15:10;;;;;;;30.03;20.07;;;;;;;9.79;40.77;98709.72;5126768;27;20641;-71
2022/03/23 06:17:36;;;;;;;36.70;19.33;;;;;;;9.82;41.35;98713.91;5121279;27;21102;-70
2022/03/23 06:20:02;;;;;;;28.63;19.27;;;;;;;10.02;40.80;98704.59;5121372;27;20415;-72
2022/03/23 06:22:28;;;;;;;28.83;20.20;;;;;;;9.96;40.86;98710.28;5110473;28;20427;-71
2022/03/23 06:24:53;;;;;;;29.80;20.87;;;;;;;9.96;40.49;98718.97;5112992;28;20487;-70
2022/03/23 06:27:19;;;;;;;28.77;19.73;;;;;;;10.08;40.90;98713.81;5113137;28;20207;-70
2022/03/23 06:29:45;;;;;;;33.43;20.73;;;;;;;10.40;39.98;98714.06;5110282;27;20651;-69
2022/03/23 06:32:11;;;;;;;34.47;21.40;;;;;;;10.53;39.87;98710.50;5117162;27;20201;-70
2022/03/23 06:34:36;;;;;;;40.77;20.57;;;;;;;10.56;39.63;98715.53;5123075;27;20196;-69
2022/03/23 06:37:02;;;;;;;31.33;19.50;;;;;;;10.71;39.39;98722.25;5115224;27;20427;-71
2022/03/23 06:39:31;;;;;;;31.80;21.33;;;;;;;10.78;39.26;98717.38;5114067;27;20200;-68
2022/03/23 06:41:57;;;;;;;33.97;20.83;;;;;;;10.87;39.06;98727.16;5127131;27;20223;-69
2022/03/23 06:44:23;;;;;;;30.23;20.77;;;;;;;10.91;38.76;98728.59;5112856;28;20949;-69
2022/03/23 06:46:48;;;;;;;34.77;22.30;;;;;;;10.94;38.59;98731.94;5112882;28;20681;-71
2022/03/23 06:49:14;;;;;;;34.77;22.37;;;;;;;10.86;38.67;98732.53;5112545;28;20177;-69
2022/03/23 06:51:39;;;;;;;31.63;19.70;;;;;;;10.95;38.89;98734.44;5112823;28;20205;-69
2022/03/23 06:54:05;;;;;;;32.87;20.83;;;;;;;11.06;38.48;98731.84;5119471;28;20182;-71
2022/03/23 06:56:31;;;;;;;37.60;21.37;;;;;;;11.45;38.85;98736.75;5114708;27;20181;-70
2022/03/23 06:58:56;;;;;;;33.03;21.27;;;;;;;11.81;37.69;98740.03;5114803;27;20185;-70
2022/03/23 07:01:22;;;;;;;34.00;20.87;;;;;;;12.09;37.86;98735.22;5112235;28;20310;-71
2022/03/23 07:03:50;;;;;;;35.30;20.53;;;;;;;12.26;37.60;98730.34;5121516;27;20173;-70
2022/03/23 07:06:16;;;;;;;44.17;21.30;;;;;;;12.42;37.70;98750.97;5112571;28;20189;-70
2022/03/23 07:11:29;;;;;;;45.40;21.63;;;;;;;12.87;37.15;98747.25;5122363;27;20545;-71
2022/03/23 07:13:55;;;;;;;31.73;20.93;;;;;;;13.06;36.33;98743.91;5118716;27;20423;-71
2022/03/23 07:16:20;;;;;;;33.70;20.83;;;;;;;13.15;36.12;98747.56;5120611;27;20486;-71
2022/03/23 07:18:46;;;;;;;30.93;20.53;;;;;;;13.30;34.95;98750.66;5115585;27;20176;-71
2022/03/23 07:21:11;;;;;;;29.83;21.53;;;;;;;13.34;35.10;98752.94;5116543;27;20220;-71
2022/03/23 07:23:37;;;;;;;30.73;21.63;;;;;;;13.12;34.95;98755.72;5112602;27;20181;-72
2022/03/23 07:26:03;;;;;;;33.03;22.20;;;;;;;13.10;35.47;98755.84;5121005;27;20177;-70
2022/03/23 07:28:29;;;;;;;35.63;21.87;;;;;;;13.46;35.15;98755.50;5122075;27;20318;-71
2022/03/23 07:30:55;;;;;;;45.23;21.80;;;;;;;13.63;35.36;98761.94;5123927;27;20462;-68
2022/03/23 07:33:21;;;;;;;31.30;21.30;;;;;;;13.94;35.55;98760.06;5114384;27;20185;-73
2022/03/23 07:35:47;;;;;;;34.57;21.30;;;;;;;14.19;34.99;98759.66;5113766;27;20545;-70
2022/03/23 07:38:13;;;;;;;31.10;21.23;;;;;;;14.40;34.25;98762.19;5120023;27;20185;-71
2022/03/23 07:40:38;;;;;;;36.90;21.50;;;;;;;14.61;33.95;98771.78;5111581;28;20604;-71
2022/03/23 07:43:04;;;;;;;38.87;21.50;;;;;;;14.82;33.40;98761.06;5111968;28;20468;-70
2022/03/23 07:45:30;;;;;;;34.17;20.70;;;;;;;14.92;33.69;98761.91;5111572;28;20197;-71
2022/03/23 07:47:56;;;;;;;40.50;20.80;;;;;;;14.91;32.97;98762.88;5119984;27;20449;-71
2022/03/23 07:50:21;;;;;;;30.90;21.17;;;;;;;14.81;32.91;98768.16;5111564;28;20447;-71
2022/03/23 07:52:47;;;;;;;31.57;20.93;;;;;;;14.88;33.23;98763.16;5116033;27;20268;-72
2022/03/23 07:55:13;;;;;;;29.40;20.73;;;;;;;14.98;33.20;98768.44;5115604;28;20214;-71
2022/03/23 07:57:38;;;;;;;34.17;21.60;;;;;;;14.99;33.01;98773.56;5076590;28;20168;-71
2022/03/23 08:00:04;;;;;;;32.83;21.70;;;;;;;14.94;32.55;98762.56;5111626;28;20605;-69
2022/03/23 08:02:30;;;;;;;40.30;21.40;;;;;;;15.12;32.51;98770.59;5119581;28;20683;-71
2022/03/23 08:04:55;;;;;;;39.20;21.57;;;;;;;15.18;32.44;98764.75;5111599;28;20483;-72
2022/03/23 08:07:21;;;;;;;34.53;22.00;;;;;;;15.34;32.05;98769.41;5111086;28;20192;-70
2022/03/23 08:09:47;;;;;;;34.57;21.37;;;;;;;15.64;31.85;98772.78;5111260;28;20587;-69
2022/03/23 08:12:16;;;;;;;30.67;22.60;;;;;;;15.92;31.31;98771.97;5118618;28;20564;-71
2022/03/23 08:14:41;;;;;;;40.00;20.67;;;;;;;15.92;30.87;98767.53;5102923;28;20564;-71
2022/03/23 08:17:07;;;;;;;35.27;20.33;;;;;;;16.29;31.09;98771.00;5111102;28;20430;-71
2022/03/23 08:19:32;;;;;;;30.13;19.77;;;;;;;16.69;30.33;98771.53;5111031;28;20292;-72
2022/03/23 08:21:58;;;;;;;32.53;19.57;;;;;;;17.03;29.57;98765.53;5118124;28;20205;-70
2022/03/23 08:24:23;;;;;;;28.90;20.23;;;;;;;17.28;29.01;98771.78;5092648;28;20192;-70
2022/03/23 08:26:49;;;;;;;41.40;20.60;;;;;;;17.59;28.59;98770.44;5111266;28;20310;-71
2022/03/23 08:29:14;;;;;;;31.03;20.60;;;;;;;17.79;27.93;98768.38;5118765;28;20213;-70
2022/03/23 08:31:40;;;;;;;39.00;19.60;;;;;;;18.06;28.47;98763.84;5119326;27;20583;-70
2022/03/23 08:34:06;;;;;;;28.37;19.30;;;;;;;18.36;27.23;98762.38;5111100;28;20178;-70
2022/03/23 08:36:32;;;;;;;35.13;19.70;;;;;;;18.66;26.88;98765.41;5115373;28;20602;-70
2022/03/23 08:38:58;;;;;;;29.63;18.67;;;;;;;18.81;26.32;98760.22;5117043;27;20672;-71
2022/03/23 08:41:23;;;;;;;25.50;19.30;;;;;;;19.04;26.04;98764.88;5119016;28;20445;-71
2022/03/23 08:43:49;;;;;;;27.37;17.73;;;;;;;19.31;26.09;98760.16;5111112;28;20858;-70
2022/03/23 08:46:15;;;;;;;29.73;19.10;;;;;;;19.60;25.39;98759.56;5111724;28;20591;-72
2022/03/23 08:48:40;;;;;;;25.97;18.20;;;;;;;19.92;24.80;98762.25;5115984;28;20264;-71
2022/03/23 08:51:06;;;;;;;25.53;17.87;;;;;;;20.20;24.48;98759.13;5119379;27;20227;-70
2022/03/23 08:53:31;;;;;;;25.50;18.23;;;;;;;20.31;23.65;98761.38;5120141;28;20258;-70
2022/03/23 08:55:57;;;;;;;23.90;17.80;;;;;;;20.51;22.47;98755.56;5111025;28;20275;-71
2022/03/23 08:58:23;;;;;;;21.90;17.27;;;;;;;20.59;22.03;98752.03;5110436;28;20216;-70
2022/03/23 09:00:49;;;;;;;22.73;17.27;;;;;;;20.68;21.74;98751.75;5110493;28;20193;-72
2022/03/23 09:03:15;;;;;;;28.00;17.70;;;;;;;20.74;21.62;98754.72;5110671;28;20189;-70
2022/03/23 09:05:40;;;;;;;20.23;16.33;;;;;;;20.71;21.63;98748.72;5111276;28;20246;-70
2022/03/23 09:08:07;;;;;;;20.23;16.27;;;;;;;20.92;21.04;98746.41;5114308;28;20260;-70
2022/03/23 09:10:34;;;;;;;18.83;16.40;;;;;;;20.95;20.44;98735.41;5114388;28;20236;-71
2022/03/23 09:13:00;;;;;;;26.87;16.43;;;;;;;21.10;19.97;98743.41;5115154;28;20984;-72
2022/03/23 09:15:26;;;;;;;21.63;15.27;;;;;;;21.36;21.17;98745.59;5113918;28;20414;-70
2022/03/23 09:17:52;;;;;;;15.90;13.80;;;;;;;21.70;20.04;98748.72;5119489;27;20206;-69
2022/03/23 09:20:18;;;;;;;17.77;13.50;;;;;;;22.02;19.43;98742.13;5099153;27;20843;-73
2022/03/23 09:22:44;;;;;;;18.43;12.83;;;;;;;22.24;18.59;98740.28;5122054;27;20427;-70
2022/03/23 09:25:12;;;;;;;19.43;14.37;;;;;;;22.30;17.91;98748.56;5121874;27;20679;-71
2022/03/23 09:27:42;;;;;;;19.33;13.73;;;;;;;22.57;18.68;98740.81;5114337;27;20414;-71
2022/03/23 09:30:08;;;;;;;21.80;14.47;;;;;;;22.69;17.72;98747.28;5113579;28;20461;-72
2022/03/23 09:32:34;;;;;;;15.00;13.03;;;;;;;22.61;17.05;98740.25;5114007;28;20419;-72
2022/03/23 09:35:00;;;;;;;24.53;13.17;;;;;;;22.55;17.33;98738.34;5113558;28;20430;-72
2022/03/23 09:40:10;;;;;;;14.73;12.03;;;;;;;22.85;15.99;98741.66;5121019;27;20429;-71
2022/03/23 09:42:38;;;;;;;16.60;12.77;;;;;;;22.95;16.04;98743.16;5114853;27;20422;-72
2022/03/23 09:45:04;;;;;;;15.03;13.43;;;;;;;23.09;17.06;98736.88;5122084;27;20173;-72
2022/03/23 09:47:30;;;;;;;20.80;14.03;;;;;;;23.13;16.45;98735.47;5113885;28;20541;-71
2022/03/23 09:49:55;;;;;;;15.93;14.10;;;;;;;23.32;17.61;98735.81;5113118;28;20518;-72
2022/03/23 09:52:21;;;;;;;18.57;12.43;;;;;;;23.24;16.60;98739.50;5104837;27;20197;-70
2022/03/23 09:54:46;;;;;;;22.07;13.50;;;;;;;23.34;17.15;98733.75;5099912;28;20213;-72
2022/03/23 09:57:13;;;;;;;22.83;14.33;;;;;;;23.32;16.82;98733.13;5113267;28;20657;-72
2022/03/23 09:59:40;;;;;;;26.53;14.90;;;;;;;23.49;17.10;98733.66;5112927;28;20226;-71
2022/03/23 10:02:05;;;;;;;17.90;13.63;;;;;;;23.66;17.68;98734.13;5096587;28;20458;-71
2022/03/23 10:04:57;;;;;;;18.77;14.63;;;;;;;24.08;17.29;98736.75;5120695;27;20419;-73
2022/03/23 10:07:35;;;;;;;19.50;14.33;;;;;;;24.23;16.18;98729.38;5082682;28;20735;-72
2022/03/23 10:10:19;;;;;;;20.80;14.37;;;;;;;24.46;16.33;98735.34;5113011;28;21048;-71
2022/03/23 10:13:22;;;;;;;17.37;13.17;;;;;;;24.74;15.91;98742.38;5113010;28;20447;-71
2022/03/23 10:16:06;;;;;;;26.10;13.90;;;;;;;24.89;15.58;98734.16;5113453;27;20415;-72
2022/03/23 10:18:53;;;;;;;17.67;13.87;;;;;;;24.96;15.63;98729.59;5112805;28;20430;-72
2022/03/23 10:21:21;;;;;;;20.27;14.70;;;;;;;25.12;15.17;98725.63;5114428;27;20455;-72
2022/03/23 10:24:02;;;;;;;19.93;12.43;;;;;;;25.27;16.06;98720.00;5113659;27;20446;-72
2022/03/23 10:26:29;;;;;;;14.13;11.97;;;;;;;25.42;14.98;98725.19;5113586;28;20422;-71
2022/03/23 10:28:55;;;;;;;15.73;12.47;;;;;;;25.52;14.41;98722.88;5129036;27;20505;-70
2022/03/23 10:31:24;;;;;;;15.93;13.53;;;;;;;25.65;15.05;98721.16;5112853;28;20471;-72
2022/03/23 10:34:10;;;;;;;14.27;11.93;;;;;;;25.52;14.37;98720.19;5112635;28;20438;-71
2022/03/23 10:36:38;;;;;;;17.90;11.53;;;;;;;25.60;14.42;98714.56;5117235;27;20419;-72
2022/03/23 10:39:06;;;;;;;15.07;11.50;;;;;;;25.76;14.96;98717.78;5114200;28;20842;-72
2022/03/23 10:41:32;;;;;;;15.90;12.27;;;;;;;25.96;14.61;98716.88;5114850;28;20449;-71
2022/03/23 10:43:58;;;;;;;20.60;12.30;;;;;;;25.71;13.38;98720.28;5114447;28;20430;-71
2022/03/23 10:46:24;;;;;;;18.80;11.63;;;;;;;25.50;14.04;98716.88;5097094;28;20193;-72
2022/03/23 10:49:01;;;;;;;13.33;10.60;;;;;;;25.59;13.68;98707.53;5100395;28;20169;-73
2022/03/23 10:51:29;;;;;;;12.53;10.03;;;;;;;25.82;12.97;98708.91;5112206;27;20458;-72
2022/03/23 10:53:55;;;;;;;11.30;9.97;;;;;;;25.94;13.38;98703.66;5097153;28;20438;-70
2022/03/23 10:56:38;;;;;;;12.03;10.60;;;;;;;25.97;13.32;98699.69;5109445;28;20475;-72
2022/03/23 10:59:15;;;;;;;10.33;9.30;;;;;;;26.10;13.33;98705.03;5127892;27;20437;-71
2022/03/23 11:02:08;;;;;;;14.63;10.50;;;;;;;26.26;12.33;98697.47;5103864;28;20453;-71
2022/03/23 11:04:43;;;;;;;14.63;9.93;;;;;;;26.03;11.98;98696.16;5101567;28;20507;-70
2022/03/23 11:07:25;;;;;;;13.77;9.83;;;;;;;26.15;12.79;98693.66;5112338;28;20438;-71
2022/03/23 11:18:12;;;;;;;10.80;9.33;;;;;;;26.52;11.93;98683.81;5112020;28;20505;-72
2022/03/23 11:20:56;;;;;;;10.10;9.10;;;;;;;26.64;12.40;98686.63;5111297;28;20448;-72
2022/03/23 11:23:25;;;;;;;11.87;9.20;;;;;;;26.23;11.77;98679.94;5111415;28;20513;-72
2022/03/23 11:25:56;;;;;;;9.33;8.40;;;;;;;26.29;13.01;98672.88;5111070;28;20495;-72
2022/03/23 11:28:22;;;;;;;10.10;8.20;;;;;;;26.31;11.83;98681.53;5110813;28;20494;-72
2022/03/23 11:30:49;;;;;;;9.70;7.87;;;;;;;26.44;12.19;98675.22;5111450;28;20858;-72
2022/03/23 11:33:21;;;;;;;10.40;7.50;;;;;;;26.26;11.78;98689.41;5111629;28;20934;-72
2022/03/23 11:35:50;;;;;;;10.30;6.73;;;;;;;26.31;11.32;98671.59;5106280;27;20422;-73
2022/03/23 11:38:25;;;;;;;10.00;7.20;;;;;;;26.38;11.47;98668.84;5111890;28;20426;-70
2022/03/23 11:40:52;;;;;;;11.13;6.97;;;;;;;26.61;12.15;98675.47;5104046;28;20441;-72